Time;durP1;ratioP1;P1;durP2;ratioP2;P2;SDS_P1;SDS_P2;PMS_P1;PMS_P2;Temp;Humidity;BMP_temperature;BMP_pressure;BME280_temperature;BME280_humidity;BME280_pressure;Samples;Min_cycle;Max_cycle;Signal;HPM_P1;HPM_P2
2022/02/10 00:16:31;;;;;;;0.20;0.10;;;;;;;2.19;100.00;100952.78;5042184;28;20880;-51
2022/02/10 00:21:33;;;;;;;0.20;0.10;;;;;;;1.94;100.00;100941.94;5039278;28;20475;-51
2022/02/10 00:24:27;;;;;;;0.20;0.10;;;;;;;1.89;100.00;100942.69;5048163;28;20581;-51
2022/02/10 00:35:14;;;;;;;0.77;0.77;;;;;;;1.86;100.00;100943.53;5040863;28;20452;-51
2022/02/10 00:37:59;;;;;;;0.30;0.20;;;;;;;1.88;100.00;100936.56;5044803;28;20940;-51
2022/02/10 00:40:28;;;;;;;0.20;0.10;;;;;;;1.92;100.00;100937.47;5040825;28;20469;-52
2022/02/10 00:42:57;;;;;;;0.20;0.10;;;;;;;1.81;100.00;100929.47;5041073;28;20487;-51
2022/02/10 00:45:26;;;;;;;0.20;0.20;;;;;;;1.98;100.00;100932.38;5041595;28;20455;-51
2022/02/10 00:47:56;;;;;;;0.20;0.10;;;;;;;1.88;100.00;100927.81;5040843;28;20451;-51
2022/02/10 00:50:26;;;;;;;0.20;0.10;;;;;;;2.00;100.00;100925.41;5046162;28;20468;-50
2022/02/10 00:53:14;;;;;;;0.20;0.10;;;;;;;1.91;100.00;100926.13;5047319;28;20813;-51
2022/02/10 00:55:44;;;;;;;0.20;0.20;;;;;;;1.73;100.00;100928.44;5046192;28;20455;-51
2022/02/10 00:58:19;;;;;;;0.20;0.10;;;;;;;1.80;100.00;100922.47;5040561;28;20451;-51
2022/02/10 01:12:26;;;;;;;0.20;0.10;;;;;;;1.78;100.00;100906.72;5041746;28;20629;-50
2022/02/10 01:31:07;;;;;;;0.20;0.10;;;;;;;1.61;100.00;100888.91;5043963;28;20467;-50
2022/02/10 01:33:35;;;;;;;0.20;0.10;;;;;;;1.75;100.00;100880.44;5039875;28;20447;-50
2022/02/10 01:36:02;;;;;;;0.20;0.10;;;;;;;1.76;100.00;100894.41;5042664;28;20486;-50
2022/02/10 01:38:28;;;;;;;0.93;0.93;;;;;;;1.78;100.00;100891.00;5046423;28;20482;-50
2022/02/10 01:58:05;;;;;;;0.20;0.10;;;;;;;1.46;100.00;100889.53;5039521;28;20990;-50
2022/02/10 02:03:24;;;;;;;0.20;0.10;;;;;;;1.29;100.00;100885.75;5028761;28;20482;-50
2022/02/10 02:05:57;;;;;;;0.20;0.10;;;;;;;1.38;100.00;100884.19;5039236;28;20444;-50
2022/02/10 02:08:27;;;;;;;0.20;0.10;;;;;;;1.27;100.00;100871.75;5042758;28;20452;-50
2022/02/10 02:10:54;;;;;;;0.20;0.10;;;;;;;1.15;100.00;100861.91;5045902;28;20519;-50
2022/02/10 02:13:21;;;;;;;0.20;0.10;;;;;;;1.21;100.00;100869.00;5043959;28;20443;-50
2022/02/10 02:15:50;;;;;;;0.20;0.10;;;;;;;1.21;100.00;100859.41;5035031;28;20439;-50
2022/02/10 02:18:17;;;;;;;0.20;0.10;;;;;;;1.25;100.00;100855.13;5043866;28;20482;-50
2022/02/10 02:20:49;;;;;;;0.20;0.10;;;;;;;1.45;100.00;100859.84;5039228;28;20502;-50
2022/02/10 02:23:18;;;;;;;0.20;0.10;;;;;;;1.53;100.00;100861.72;5037339;28;20486;-50
2022/02/10 02:25:49;;;;;;;0.20;0.10;;;;;;;1.42;100.00;100859.78;5039595;28;20475;-50
2022/02/10 02:28:16;;;;;;;0.20;0.10;;;;;;;1.65;100.00;100864.56;5038905;28;20956;-51
2022/02/10 02:30:48;;;;;;;0.20;0.10;;;;;;;1.37;100.00;100855.31;5045484;28;20467;-50
2022/02/10 02:36:47;;;;;;;0.20;0.10;;;;;;;1.23;100.00;100848.94;5035248;28;20497;-50
2022/02/10 03:07:00;;;;;;;0.20;0.10;;;;;;;1.21;100.00;100816.63;5048009;28;20500;-50
2022/02/10 03:09:27;;;;;;;0.20;0.20;;;;;;;1.25;100.00;100824.59;5038368;28;20479;-51
2022/02/10 03:11:56;;;;;;;0.20;0.20;;;;;;;1.25;100.00;100824.59;5040648;28;20494;-50
2022/02/10 03:14:29;;;;;;;0.20;0.20;;;;;;;1.08;100.00;100812.91;5045600;28;20867;-50
2022/02/10 03:19:51;;;;;;;0.30;0.20;;;;;;;1.04;100.00;100805.88;5031230;28;20447;-50
2022/02/10 03:22:45;;;;;;;0.20;0.10;;;;;;;1.13;100.00;100811.28;5038194;28;20793;-50
2022/02/10 04:14:16;;;;;;;0.20;0.10;;;;;;;0.69;100.00;100772.09;5047479;28;20488;-50
2022/02/10 04:16:51;;;;;;;0.20;0.10;;;;;;;0.71;100.00;100782.59;5040047;28;20443;-50
2022/02/10 04:22:18;;;;;;;0.20;0.10;;;;;;;0.73;100.00;100775.63;5003412;28;20506;-50
2022/02/10 04:25:09;;;;;;;0.20;0.10;;;;;;;0.57;100.00;100762.28;5043907;28;20534;-50
2022/02/10 04:42:26;;;;;;;0.20;0.10;;;;;;;1.01;100.00;100762.19;5044238;28;20501;-50
2022/02/10 04:57:36;;;;;;;0.20;0.10;;;;;;;0.69;100.00;100747.66;5045461;28;20931;-50
2022/02/10 05:54:03;;;;;;;0.20;0.10;;;;;;;1.19;100.00;100731.09;5030838;28;20462;-50
2022/02/10 06:51:13;;;;;;;0.20;0.10;;;;;;;3.52;100.00;100698.78;5051841;28;20825;-50
2022/02/10 07:51:15;;;;;;;0.20;0.10;;;;;;;4.47;100.00;100731.69;5046499;28;20459;-55
2022/02/10 07:56:48;;;;;;;0.20;0.10;;;;;;;4.80;100.00;100724.78;5051568;28;20482;-56
2022/02/10 08:25:56;;;;;;;0.20;0.10;;;;;;;4.85;100.00;100736.19;5041381;28;20518;-56
2022/02/10 08:55:00;;;;;;;0.20;0.10;;;;;;;7.16;100.00;100759.38;5047366;28;20505;-54
2022/02/10 10:01:47;;;;;;;0.20;0.10;;;;;;;7.85;100.00;100810.81;5044317;28;20474;-55
2022/02/10 10:04:22;;;;;;;0.30;0.20;;;;;;;8.11;100.00;100812.34;5046164;28;20560;-55
2022/02/10 10:07:04;;;;;;;0.50;0.50;;;;;;;8.03;100.00;100813.28;5043620;28;20923;-55
2022/02/10 10:55:57;;;;;;;0.30;0.20;;;;;;;8.72;100.00;100816.97;5040151;28;20862;-55
2022/02/10 10:59:07;;;;;;;0.20;0.20;;;;;;;8.77;100.00;100815.13;5044930;28;20452;-56
2022/02/10 11:39:44;;;;;;;2.40;2.30;;;;;;;9.23;100.00;100764.13;5043298;28;20451;-55
2022/02/10 12:42:39;;;;;;;0.30;0.20;;;;;;;9.80;100.00;100802.97;5005253;28;20480;-56
2022/02/10 14:09:18;;;;;;;0.30;0.20;;;;;;;10.65;93.12;100760.63;5039028;28;20808;-56
2022/02/10 14:14:46;;;;;;;1.80;1.43;;;;;;;10.41;92.40;100768.22;5000119;28;20474;-55
2022/02/10 14:17:18;;;;;;;0.30;0.20;;;;;;;10.32;92.94;100764.88;5050322;28;20467;-56
2022/02/10 14:19:58;;;;;;;0.30;0.20;;;;;;;10.28;93.88;100765.84;5025285;28;20502;-55
2022/02/10 14:22:39;;;;;;;0.30;0.20;;;;;;;10.54;94.38;100761.75;5042654;28;20494;-55
2022/02/10 14:28:11;;;;;;;0.30;0.20;;;;;;;10.44;94.53;100777.03;5039863;28;20451;-55
2022/02/10 14:30:40;;;;;;;0.30;0.20;;;;;;;10.33;94.88;100771.06;5045709;28;20874;-55
2022/02/10 14:33:07;;;;;;;0.30;0.20;;;;;;;10.25;95.37;100770.31;5045520;28;20501;-55
2022/02/10 15:36:09;;;;;;;0.30;0.20;;;;;;;9.64;98.81;100774.94;5039907;28;20450;-55
2022/02/10 15:52:10;;;;;;;0.30;0.20;;;;;;;9.54;98.47;100791.91;5048596;28;20463;-55
2022/02/10 16:16:59;;;;;;;0.30;0.20;;;;;;;9.08;100.00;100767.88;5047777;28;20439;-55
2022/02/10 16:19:28;;;;;;;0.40;0.30;;;;;;;9.17;99.64;100771.25;5029963;28;20492;-55
2022/02/10 16:22:02;;;;;;;1.80;1.70;;;;;;;9.15;100.00;100766.88;5039167;28;20981;-55
2022/02/10 16:24:36;;;;;;;0.30;0.20;;;;;;;9.36;99.69;100769.22;5026111;28;20567;-55
2022/02/10 16:27:16;;;;;;;0.30;0.10;;;;;;;9.38;99.22;100770.06;5041448;28;20500;-55
2022/02/10 16:29:45;;;;;;;0.30;0.20;;;;;;;9.24;99.82;100757.91;5042608;28;20494;-55
2022/02/10 16:32:17;;;;;;;0.30;0.20;;;;;;;9.39;99.17;100769.16;5047687;28;20514;-56
2022/02/10 16:34:48;;;;;;;0.30;0.20;;;;;;;9.39;99.50;100768.28;5047992;28;20458;-55
2022/02/10 16:37:20;;;;;;;0.30;0.20;;;;;;;9.10;100.00;100769.63;5043016;28;20869;-56
2022/02/10 16:39:51;;;;;;;0.43;0.43;;;;;;;9.04;100.00;100772.34;5041320;28;20463;-56
2022/02/10 16:42:23;;;;;;;0.30;0.20;;;;;;;9.33;100.00;100776.34;5054637;28;20832;-56
2022/02/10 16:44:54;;;;;;;0.30;0.20;;;;;;;9.33;100.00;100773.72;5040838;28;20467;-56
2022/02/10 16:47:26;;;;;;;1.93;1.93;;;;;;;9.33;99.25;100769.28;5043241;28;20491;-55
2022/02/10 16:49:59;;;;;;;0.60;0.53;;;;;;;9.08;100.00;100783.81;5047377;28;20486;-56
2022/02/10 16:52:36;;;;;;;0.30;0.20;;;;;;;8.96;100.00;100781.31;5047488;28;20449;-55
2022/02/10 17:19:30;;;;;;;0.30;0.20;;;;;;;8.90;100.00;100785.78;5027969;28;20842;-55
2022/02/10 17:27:25;;;;;;;2.30;0.50;;;;;;;8.87;100.00;100787.63;5046876;28;20487;-55
2022/02/10 17:44:34;;;;;;;0.30;0.20;;;;;;;8.87;100.00;100792.91;5026987;28;21016;-55
2022/02/10 17:54:30;;;;;;;0.47;0.47;;;;;;;8.70;100.00;100789.63;5037618;28;20482;-54
2022/02/10 17:56:57;;;;;;;0.30;0.20;;;;;;;8.77;100.00;100788.63;5032984;28;20913;-55
2022/02/10 17:59:23;;;;;;;0.30;0.20;;;;;;;8.59;100.00;100792.41;5046100;28;20550;-55
2022/02/10 18:01:51;;;;;;;0.30;0.20;;;;;;;8.73;100.00;100792.22;5041899;28;20502;-55
2022/02/10 18:04:19;;;;;;;0.30;0.20;;;;;;;8.82;100.00;100795.63;5039283;28;20949;-55
2022/02/10 18:06:52;;;;;;;0.30;0.20;;;;;;;8.79;100.00;100794.81;5048138;28;20548;-56
2022/02/10 18:17:28;;;;;;;0.30;0.20;;;;;;;8.68;100.00;100794.06;5033581;28;20498;-55
2022/02/10 18:20:00;;;;;;;0.30;0.20;;;;;;;8.70;100.00;100787.84;5044239;28;20504;-55
2022/02/10 18:34:10;;;;;;;0.30;0.20;;;;;;;8.66;100.00;100777.31;5046745;28;20865;-55
2022/02/10 19:11:17;;;;;;;0.30;0.20;;;;;;;8.24;100.00;100750.44;5045659;28;20843;-55
2022/02/10 19:13:47;;;;;;;0.30;0.20;;;;;;;8.11;100.00;100754.09;5045034;28;20477;-55
2022/02/10 19:16:13;;;;;;;1.80;1.70;;;;;;;8.25;100.00;100753.06;5029708;28;20572;-55
2022/02/10 19:18:50;;;;;;;1.67;1.57;;;;;;;8.18;100.00;100756.66;5038388;28;20454;-55
2022/02/10 19:21:17;;;;;;;0.30;0.10;;;;;;;8.38;100.00;100751.16;5043185;28;20471;-55
2022/02/10 19:23:44;;;;;;;0.30;0.20;;;;;;;8.28;100.00;100755.66;5019197;28;20522;-55
2022/02/10 19:26:10;;;;;;;0.30;0.20;;;;;;;8.23;100.00;100757.50;5041644;28;20482;-55
2022/02/10 19:28:37;;;;;;;0.30;0.20;;;;;;;8.37;100.00;100756.50;5035777;28;20487;-56
2022/02/10 19:31:06;;;;;;;0.30;0.30;;;;;;;8.39;100.00;100758.22;5041679;28;20478;-55
2022/02/10 19:33:33;;;;;;;0.30;0.20;;;;;;;8.29;100.00;100751.25;5038341;28;20455;-55
2022/02/10 19:36:01;;;;;;;0.30;0.20;;;;;;;8.28;100.00;100745.06;5042358;28;20448;-55
2022/02/10 19:38:30;;;;;;;0.30;0.20;;;;;;;8.37;100.00;100741.47;5045187;28;20487;-56
2022/02/10 19:40:57;;;;;;;0.20;0.20;;;;;;;8.10;100.00;100737.34;5042823;28;20475;-56
2022/02/10 19:43:44;;;;;;;0.30;0.20;;;;;;;8.23;100.00;100746.91;5044692;28;20451;-55
2022/02/10 19:46:11;;;;;;;0.30;0.20;;;;;;;8.26;100.00;100745.97;5045036;28;20920;-55
2022/02/10 19:48:39;;;;;;;0.30;0.20;;;;;;;8.24;100.00;100747.78;5039267;28;21022;-55
2022/02/10 19:51:06;;;;;;;0.30;0.20;;;;;;;8.31;100.00;100749.44;5024542;28;20526;-55
2022/02/10 19:53:35;;;;;;;0.30;0.20;;;;;;;8.32;100.00;100740.59;5039632;28;20450;-55
2022/02/10 19:56:02;;;;;;;0.30;0.30;;;;;;;8.24;100.00;100742.47;5038236;28;20459;-55
2022/02/10 19:58:30;;;;;;;0.20;0.20;;;;;;;8.37;100.00;100730.00;5055284;28;20446;-56
2022/02/10 20:00:59;;;;;;;1.70;1.23;;;;;;;8.15;100.00;100738.16;5042096;28;20475;-56
2022/02/10 20:03:27;;;;;;;0.30;0.20;;;;;;;8.10;100.00;100739.13;5029331;28;20458;-56
2022/02/10 20:05:55;;;;;;;0.27;0.20;;;;;;;8.12;100.00;100738.19;5045988;28;20452;-55
2022/02/10 20:08:24;;;;;;;0.20;0.20;;;;;;;8.13;100.00;100736.44;5046121;28;20500;-56
2022/02/10 20:10:55;;;;;;;0.30;0.20;;;;;;;8.16;100.00;100739.91;5048129;28;20478;-56
2022/02/10 20:13:30;;;;;;;0.47;0.47;;;;;;;8.31;100.00;100739.72;5045069;28;20474;-56
2022/02/10 20:16:00;;;;;;;0.20;0.20;;;;;;;8.32;100.00;100725.59;5024088;28;20530;-56
2022/02/10 20:18:27;;;;;;;0.30;0.20;;;;;;;8.38;100.00;100734.41;5054963;28;20863;-54
2022/02/10 20:20:55;;;;;;;0.30;0.20;;;;;;;8.12;100.00;100743.50;5040383;28;20895;-54
2022/02/10 20:23:23;;;;;;;1.33;1.33;;;;;;;8.13;100.00;100739.94;5035153;28;20452;-56
2022/02/10 20:26:05;;;;;;;0.30;0.20;;;;;;;8.20;100.00;100746.91;5032784;28;20451;-54
2022/02/10 20:28:32;;;;;;;0.40;0.40;;;;;;;8.19;100.00;100733.69;5041443;28;20550;-54
2022/02/10 20:31:00;;;;;;;1.47;1.47;;;;;;;8.29;100.00;100735.34;5055186;28;20553;-55
2022/02/10 20:33:29;;;;;;;0.30;0.20;;;;;;;8.19;100.00;100728.41;5038564;28;20463;-54
2022/02/10 20:35:59;;;;;;;0.30;0.20;;;;;;;8.19;100.00;100728.41;5037243;28;20451;-54
2022/02/10 20:38:28;;;;;;;0.20;0.20;;;;;;;8.25;100.00;100713.31;5048028;28;20455;-54
2022/02/10 20:40:59;;;;;;;0.30;0.20;;;;;;;8.39;100.00;100710.53;5045010;28;20820;-54
2022/02/10 20:43:26;;;;;;;0.30;0.20;;;;;;;8.31;100.00;100717.66;5041425;28;20827;-55
2022/02/10 20:46:02;;;;;;;0.20;0.20;;;;;;;8.23;100.00;100723.06;5043125;28;20491;-54
2022/02/10 20:48:32;;;;;;;0.20;0.20;;;;;;;8.12;100.00;100722.31;5047745;28;20517;-54
2022/02/10 20:50:59;;;;;;;0.20;0.10;;;;;;;8.07;100.00;100713.53;5047539;28;21052;-55
2022/02/10 20:53:29;;;;;;;0.30;0.20;;;;;;;7.96;100.00;100712.78;5028008;28;20508;-54
2022/02/10 20:55:59;;;;;;;0.20;0.20;;;;;;;7.99;100.00;100716.28;5040729;28;20475;-54
2022/02/10 20:58:29;;;;;;;0.30;0.20;;;;;;;8.08;100.00;100711.75;5046642;28;20474;-54
2022/02/10 21:00:59;;;;;;;0.20;0.17;;;;;;;7.98;100.00;100711.88;5047265;28;20463;-56
2022/02/10 21:03:29;;;;;;;0.30;0.20;;;;;;;8.22;100.00;100717.75;5027783;28;20453;-54
2022/02/10 21:11:17;;;;;;;0.33;0.33;;;;;;;8.22;100.00;100707.16;5040837;28;20513;-54
2022/02/10 21:13:43;;;;;;;0.90;0.80;;;;;;;8.13;100.00;100708.19;5040176;28;20517;-54
2022/02/10 21:16:10;;;;;;;0.30;0.20;;;;;;;7.97;100.00;100698.66;5044846;28;20448;-54
2022/02/10 21:18:40;;;;;;;0.40;0.40;;;;;;;8.31;100.00;100702.66;5047152;28;20820;-54
2022/02/10 21:21:12;;;;;;;0.30;0.20;;;;;;;8.29;100.00;100703.56;5038722;28;20474;-54
2022/02/10 21:23:48;;;;;;;0.30;0.20;;;;;;;8.15;100.00;100702.84;5045679;28;20475;-55
2022/02/10 21:26:17;;;;;;;0.30;0.20;;;;;;;8.31;100.00;100707.06;5033158;28;20493;-54
2022/02/10 21:28:44;;;;;;;0.20;0.10;;;;;;;8.12;100.00;100702.91;5040150;28;20598;-54
2022/02/10 21:31:11;;;;;;;0.20;0.10;;;;;;;8.28;100.00;100699.16;5043419;28;20881;-56
2022/02/10 21:39:08;;;;;;;0.20;0.10;;;;;;;8.21;100.00;100698.34;5040311;28;20478;-55
2022/02/10 22:19:19;;;;;;;0.20;0.20;;;;;;;7.72;100.00;100684.81;5047677;28;20450;-55
2022/02/10 22:21:55;;;;;;;0.83;0.60;;;;;;;7.74;100.00;100685.69;5037313;28;20505;-55
2022/02/10 22:24:23;;;;;;;0.20;0.10;;;;;;;7.90;100.00;100683.72;5027734;28;20443;-55
2022/02/10 22:26:52;;;;;;;0.20;0.10;;;;;;;7.73;100.00;100692.75;5039037;28;20448;-55
2022/02/10 22:29:28;;;;;;;0.20;0.20;;;;;;;7.67;100.00;100687.50;5043968;28;20491;-55
2022/02/10 22:32:17;;;;;;;0.30;0.20;;;;;;;7.74;100.00;100690.97;5045696;28;20490;-55
2022/02/10 22:34:46;;;;;;;0.30;0.20;;;;;;;7.85;100.00;100693.50;5045405;28;20495;-54
2022/02/10 22:37:14;;;;;;;0.30;0.20;;;;;;;7.95;100.00;100695.16;5041599;28;20443;-55
2022/02/10 22:39:46;;;;;;;0.20;0.17;;;;;;;7.79;100.00;100690.91;5038857;28;20501;-55
2022/02/10 22:42:14;;;;;;;0.20;0.20;;;;;;;7.61;100.00;100677.00;5044226;28;20972;-55
2022/02/10 22:44:41;;;;;;;0.20;0.20;;;;;;;7.66;100.00;100684.88;5045709;28;21002;-55
2022/02/10 22:47:09;;;;;;;0.30;0.20;;;;;;;7.58;100.00;100681.44;5040592;28;20474;-54
2022/02/10 22:49:35;;;;;;;0.20;0.10;;;;;;;7.63;100.00;100683.13;5049753;28;20971;-55
2022/02/10 22:52:03;;;;;;;0.20;0.20;;;;;;;7.63;100.00;100688.44;5040783;28;20502;-54
2022/02/10 22:54:30;;;;;;;0.40;0.33;;;;;;;7.61;100.00;100690.22;5038745;28;20482;-55
2022/02/10 22:56:58;;;;;;;0.20;0.20;;;;;;;7.63;100.00;100688.44;5042843;28;20452;-55
2022/02/10 22:59:25;;;;;;;0.20;0.10;;;;;;;7.74;100.00;100690.97;5035082;28;20447;-54
2022/02/10 23:01:52;;;;;;;0.20;0.10;;;;;;;7.83;100.00;100687.34;5042191;28;20468;-54
2022/02/10 23:04:20;;;;;;;0.20;0.10;;;;;;;7.74;100.00;100698.91;5045670;28;20530;-55
2022/02/10 23:06:49;;;;;;;0.20;0.20;;;;;;;7.65;100.00;100689.28;5042303;28;20454;-54
2022/02/10 23:09:38;;;;;;;0.20;0.20;;;;;;;7.89;100.00;100695.22;5038249;28;21019;-55
2022/02/10 23:12:05;;;;;;;0.20;0.13;;;;;;;7.68;100.00;100691.03;5038396;28;20476;-54
2022/02/10 23:14:32;;;;;;;0.20;0.20;;;;;;;7.67;100.00;100694.56;5044430;28;20448;-54
2022/02/10 23:16:59;;;;;;;0.20;0.20;;;;;;;7.59;100.00;100689.34;5032667;28;20448;-55
2022/02/10 23:19:26;;;;;;;0.20;0.20;;;;;;;7.57;100.00;100683.22;5044603;28;20539;-54
2022/02/10 23:21:53;;;;;;;0.20;0.10;;;;;;;7.54;100.00;100685.91;5020454;28;20479;-54
2022/02/10 23:24:20;;;;;;;0.20;0.20;;;;;;;7.53;100.00;100694.69;5044001;28;20451;-54
2022/02/10 23:26:47;;;;;;;0.20;0.10;;;;;;;7.63;100.00;100691.06;5045147;28;20455;-54
2022/02/10 23:29:13;;;;;;;0.20;0.20;;;;;;;7.58;100.00;100692.03;5039890;28;20552;-55
2022/02/10 23:31:40;;;;;;;0.20;0.20;;;;;;;7.64;100.00;100684.00;5039152;28;20468;-54
2022/02/10 23:34:07;;;;;;;0.20;0.20;;;;;;;7.60;100.00;100725.50;5047321;28;20444;-54
2022/02/10 23:36:46;;;;;;;0.20;0.10;;;;;;;7.40;100.00;100736.28;5040994;28;20478;-54
2022/02/10 23:39:37;;;;;;;0.30;0.20;;;;;;;7.08;100.00;100736.50;5045084;28;20500;-54
2022/02/10 23:42:17;;;;;;;0.20;0.10;;;;;;;7.00;100.00;100740.09;5030596;28;20554;-54
2022/02/10 23:44:48;;;;;;;0.20;0.10;;;;;;;6.95;100.00;100753.31;5042142;28;20447;-54
2022/02/10 23:47:19;;;;;;;0.20;0.10;;;;;;;6.67;100.00;100752.63;5045546;28;20517;-54
2022/02/10 23:49:50;;;;;;;0.20;0.20;;;;;;;6.43;100.00;100776.47;5048582;28;20487;-54
2022/02/10 23:52:17;;;;;;;0.20;0.10;;;;;;;6.35;100.00;100758.06;5035625;28;20471;-54
2022/02/10 23:54:48;;;;;;;0.20;0.10;;;;;;;6.37;100.00;100755.41;5048481;28;20514;-54
2022/02/10 23:57:33;;;;;;;0.20;0.10;;;;;;;6.21;100.00;100762.50;5017788;28;20928;-54
